createdAt,value
2023-01-02T00:00:03.568Z,1006.72
2023-01-02T00:05:03.363Z,1006.63
2023-01-02T00:10:03.261Z,1006.7
2023-01-02T00:15:03.336Z,1006.73
2023-01-02T00:20:03.391Z,1006.82
2023-01-02T00:25:03.307Z,1006.97
2023-01-02T00:30:03.423Z,1007.16
2023-01-02T00:35:03.215Z,1007.1
2023-01-02T00:40:03.282Z,1007.11
2023-01-02T00:45:03.139Z,1007.13
2023-01-02T00:50:03.273Z,1007.33
2023-01-02T00:55:03.198Z,1007.51
2023-01-02T01:00:03.255Z,1007.76
2023-01-02T01:05:03.214Z,1007.87
2023-01-02T01:10:03.255Z,1007.96
2023-01-02T01:15:03.367Z,1008.07
2023-01-02T01:20:03.292Z,1008.14
2023-01-02T01:25:03.307Z,1008.41
2023-01-02T01:30:03.429Z,1008.72
2023-01-02T01:35:27.596Z,1008.82
2023-01-02T01:40:03.403Z,1008.84
2023-01-02T01:45:03.193Z,1008.81
2023-01-02T01:50:05.696Z,1008.83
2023-01-02T01:55:03.213Z,1008.83
2023-01-02T02:00:03.236Z,1008.86
2023-01-02T02:05:03.140Z,1008.79
2023-01-02T02:10:03.161Z,1008.57
2023-01-02T02:15:03.239Z,1008.5
2023-01-02T02:20:03.233Z,1008.5
2023-01-02T02:25:03.238Z,1008.47
2023-01-02T02:30:03.298Z,1008.45
2023-01-02T02:35:03.150Z,1008.43
2023-01-02T02:40:04.019Z,1008.28
2023-01-02T02:45:04.677Z,1008.23
2023-01-02T02:50:03.288Z,1008.21
2023-01-02T02:55:03.154Z,1008.2
2023-01-02T03:00:03.292Z,1008.24
2023-01-02T03:05:03.219Z,1008.23
2023-01-02T03:10:04.363Z,1008.3
2023-01-02T03:15:03.122Z,1008.43
2023-01-02T03:20:04.388Z,1008.44
2023-01-02T03:25:03.143Z,1008.47
2023-01-02T03:30:03.241Z,1008.49
2023-01-02T03:35:03.180Z,1008.48
2023-01-02T03:40:03.506Z,1008.42
2023-01-02T03:45:03.254Z,1008.3
2023-01-02T03:50:04.288Z,1008.2
2023-01-02T03:55:03.202Z,1008.06
2023-01-02T04:00:03.333Z,1007.98
2023-01-02T04:05:03.232Z,1007.9
2023-01-02T04:10:04.005Z,1007.83
2023-01-02T04:15:03.235Z,1007.91
2023-01-02T04:20:03.222Z,1007.94
2023-01-02T04:25:03.129Z,1008.0
2023-01-02T04:30:03.260Z,1008.12
2023-01-02T04:35:03.141Z,1008.02
2023-01-02T04:40:03.296Z,1008.04
2023-01-02T04:45:03.237Z,1008.09
2023-01-02T04:50:03.394Z,1008.02
2023-01-02T04:55:03.162Z,1007.97
2023-01-02T05:00:03.252Z,1007.94
2023-01-02T05:05:03.310Z,1007.93
2023-01-02T05:10:03.323Z,1008.0
2023-01-02T05:15:08.323Z,1008.13
2023-01-02T05:20:03.212Z,1008.09
2023-01-02T05:25:03.245Z,1007.91
2023-01-02T05:30:03.282Z,1007.79
2023-01-02T05:35:03.199Z,1007.76
2023-01-02T05:40:03.419Z,1007.72
2023-01-02T05:45:14.992Z,1007.64
2023-01-02T05:50:03.436Z,1007.44
2023-01-02T05:55:22.427Z,1007.38
2023-01-02T06:00:03.210Z,1007.19
2023-01-02T06:05:19.598Z,1007.04
2023-01-02T06:10:03.247Z,1007.14
2023-01-02T06:15:18.887Z,1007.25
2023-01-02T06:20:03.309Z,1007.36
2023-01-02T06:25:03.135Z,1007.41
2023-01-02T06:30:03.287Z,1007.47
2023-01-02T06:35:03.138Z,1007.47
2023-01-02T06:40:03.235Z,1007.43
2023-01-02T06:45:03.135Z,1007.18
2023-01-02T06:50:03.368Z,1007.09
2023-01-02T06:55:35.565Z,1007.08
2023-01-02T07:00:03.267Z,1007.06
2023-01-02T07:05:03.320Z,1007.13
2023-01-02T07:10:03.228Z,1007.25
2023-01-02T07:15:03.124Z,1007.23
2023-01-02T07:20:10.894Z,1007.21
2023-01-02T07:25:03.169Z,1007.16
2023-01-02T07:30:03.247Z,1007.21
2023-01-02T07:35:03.230Z,1007.32
2023-01-02T07:40:03.227Z,1007.5
2023-01-02T07:45:03.111Z,1007.55
2023-01-02T07:50:03.222Z,1007.69
2023-01-02T07:55:03.181Z,1007.82
2023-01-02T08:00:03.199Z,1007.87
2023-01-02T08:05:03.137Z,1007.86
2023-01-02T08:10:03.413Z,1007.77
2023-01-02T08:15:03.154Z,1007.63
2023-01-02T08:20:07.917Z,1007.72
2023-01-02T08:25:03.196Z,1007.79
2023-01-02T08:30:03.189Z,1007.65
2023-01-02T08:35:03.147Z,1007.74
2023-01-02T08:40:03.352Z,1008.05
2023-01-02T08:45:04.127Z,1008.68
2023-01-02T08:50:03.191Z,1009.23
2023-01-02T08:55:03.193Z,1009.27
2023-01-02T09:00:03.306Z,1009.25
2023-01-02T09:05:03.190Z,1009.26
2023-01-02T09:10:03.424Z,1009.7
2023-01-02T09:15:03.257Z,1011.11
2023-01-02T09:20:03.411Z,1011.86
2023-01-02T09:25:03.222Z,1011.86
2023-01-02T09:40:03.340Z,1010.6
2023-01-02T10:05:13.948Z,1011.4
2023-01-02T10:20:03.165Z,1011.0
2023-01-02T10:25:03.137Z,1011.05
2023-01-02T10:30:03.321Z,1011.13
2023-01-02T10:35:03.353Z,1011.06
2023-01-02T10:40:03.241Z,1011.07
2023-01-02T10:45:03.163Z,1011.12
2023-01-02T10:50:03.307Z,1011.09
2023-01-02T10:55:03.123Z,1011.04
2023-01-02T11:00:03.308Z,1011.06
2023-01-02T11:05:03.138Z,1010.94
2023-01-02T11:10:03.227Z,1010.85
2023-01-02T11:15:03.168Z,1010.81
2023-01-02T11:20:03.249Z,1010.78
2023-01-02T11:25:03.157Z,1010.71
2023-01-02T11:30:03.348Z,1010.67
2023-01-02T11:35:03.169Z,1010.66
2023-01-02T11:40:03.313Z,1010.66
2023-01-02T11:45:03.150Z,1010.58
2023-01-02T11:50:03.400Z,1010.74
2023-01-02T11:55:03.155Z,1010.81
2023-01-02T12:00:03.254Z,1010.86
2023-01-02T12:05:03.104Z,1010.83
2023-01-02T12:10:08.259Z,1010.74
2023-01-02T12:15:03.128Z,1010.79
2023-01-02T12:20:05.564Z,1010.85
2023-01-02T12:25:03.248Z,1010.8
2023-01-02T12:30:03.360Z,1010.72
2023-01-02T12:35:03.339Z,1010.68
2023-01-02T12:40:03.347Z,1010.7
2023-01-02T12:45:04.220Z,1010.69
2023-01-02T12:50:03.255Z,1010.47
2023-01-02T12:55:03.243Z,1010.37
2023-01-02T13:00:03.279Z,1010.3
2023-01-02T13:05:03.190Z,1010.09
2023-01-02T13:10:03.296Z,1009.87
2023-01-02T13:15:03.342Z,1010.03
2023-01-02T13:20:03.243Z,1010.09
2023-01-02T13:25:03.286Z,1010.1
2023-01-02T13:30:03.312Z,1010.21
2023-01-02T13:35:03.212Z,1010.31
2023-01-02T13:40:03.266Z,1010.42
2023-01-02T13:45:03.165Z,1010.73
2023-01-02T13:50:03.439Z,1011.02
2023-01-02T13:55:03.245Z,1011.04
2023-01-02T14:00:03.313Z,1011.04
2023-01-02T14:05:03.123Z,1011.12
2023-01-02T14:10:03.326Z,1011.09
2023-01-02T14:15:03.253Z,1010.95
2023-01-02T14:20:03.630Z,1011.0
2023-01-02T14:25:03.134Z,1010.98
2023-01-02T14:30:03.289Z,1010.97
2023-01-02T14:35:03.164Z,1010.91
2023-01-02T14:40:03.287Z,1010.93
2023-01-02T14:45:03.233Z,1011.01
2023-01-02T14:50:03.186Z,1010.99
2023-01-02T14:55:03.146Z,1010.93
2023-01-02T15:00:03.291Z,1010.76
2023-01-02T15:05:03.164Z,1010.55
2023-01-02T15:10:03.374Z,1010.47
2023-01-02T15:15:03.179Z,1010.29
2023-01-02T15:20:03.306Z,1010.11
2023-01-02T15:25:03.161Z,1009.93
2023-01-02T15:30:03.497Z,1009.8
2023-01-02T15:35:03.188Z,1009.53
2023-01-02T15:40:03.334Z,1009.28
2023-01-02T15:45:03.182Z,1009.1
2023-01-02T15:50:03.302Z,1009.03
2023-01-02T15:55:03.261Z,1009.02
2023-01-02T16:00:03.355Z,1008.89
2023-01-02T16:05:03.180Z,1008.74
2023-01-02T16:10:03.208Z,1008.65
2023-01-02T16:15:03.187Z,1008.58
2023-01-02T16:20:03.360Z,1008.58
2023-01-02T16:25:08.192Z,1008.51
2023-01-02T16:30:04.365Z,1008.45
2023-01-02T16:35:03.193Z,1008.62
2023-01-02T16:40:03.314Z,1008.61
2023-01-02T16:45:03.243Z,1008.62
2023-01-02T16:50:03.263Z,1008.61
2023-01-02T16:55:03.156Z,1008.46
2023-01-02T17:00:03.466Z,1008.42
2023-01-02T17:05:03.111Z,1008.22
2023-01-02T17:10:03.298Z,1008.0
2023-01-02T17:15:03.132Z,1007.88
2023-01-02T17:20:03.268Z,1007.9
2023-01-02T17:25:03.170Z,1007.85
2023-01-02T17:30:03.339Z,1007.67
2023-01-02T17:35:03.219Z,1007.74
2023-01-02T17:40:03.345Z,1007.63
2023-01-02T17:45:03.153Z,1007.44
2023-01-02T17:50:03.455Z,1007.41
2023-01-02T17:55:03.126Z,1007.23
2023-01-02T18:00:03.318Z,1007.15
2023-01-02T18:05:03.160Z,1007.08
2023-01-02T18:10:09.480Z,1006.86
2023-01-02T18:15:04.238Z,1006.72
2023-01-02T18:20:03.266Z,1006.66
2023-01-02T18:25:04.139Z,1006.6
2023-01-02T18:30:03.317Z,1006.41
2023-01-02T18:35:16.322Z,1006.28
2023-01-02T18:40:03.223Z,1006.13
2023-01-02T18:45:03.166Z,1006.03
2023-01-02T18:50:03.261Z,1005.95
2023-01-02T18:55:03.169Z,1005.88
2023-01-02T19:00:03.284Z,1005.97
2023-01-02T19:05:03.209Z,1005.97
2023-01-02T19:10:03.455Z,1005.91
2023-01-02T19:15:03.178Z,1005.73
2023-01-02T19:20:03.280Z,1005.58
2023-01-02T19:25:05.760Z,1005.48
2023-01-02T19:30:03.350Z,1005.46
2023-01-02T19:35:03.213Z,1005.5
2023-01-02T19:40:03.396Z,1005.48
2023-01-02T19:45:03.184Z,1005.48
2023-01-02T19:50:03.295Z,1005.46
2023-01-02T19:55:03.143Z,1005.35
2023-01-02T20:00:03.256Z,1005.33
2023-01-02T20:05:03.422Z,1005.33
2023-01-02T20:10:03.356Z,1005.3
2023-01-02T20:15:03.232Z,1005.25
2023-01-02T20:20:03.428Z,1005.22
2023-01-02T20:25:03.132Z,1005.37
2023-01-02T20:30:03.647Z,1005.4
2023-01-02T20:35:03.222Z,1005.44
2023-01-02T20:40:03.380Z,1005.46
2023-01-02T20:45:03.166Z,1005.48
2023-01-02T20:50:03.295Z,1005.55
2023-01-02T20:55:03.195Z,1005.57
2023-01-02T21:00:03.326Z,1005.61
2023-01-02T21:05:03.215Z,1005.76
2023-01-02T21:10:03.415Z,1005.88
2023-01-02T21:15:03.359Z,1005.96
2023-01-02T21:20:03.200Z,1005.94
2023-01-02T21:25:03.225Z,1006.03
2023-01-02T21:30:03.238Z,1006.05
2023-01-02T21:35:03.149Z,1005.99
2023-01-02T21:40:03.171Z,1005.94
2023-01-02T21:45:03.256Z,1006.02
2023-01-02T21:50:03.235Z,1006.01
2023-01-02T21:55:03.152Z,1006.12
2023-01-02T22:00:03.312Z,1006.27
2023-01-02T22:05:03.163Z,1006.23
2023-01-02T22:10:03.347Z,1006.15
2023-01-02T22:15:03.200Z,1006.28
2023-01-02T22:20:03.309Z,1006.28
2023-01-02T22:25:03.367Z,1006.39
2023-01-02T22:30:21.906Z,1006.38
2023-01-02T22:35:03.245Z,1006.44
2023-01-02T22:40:03.341Z,1006.47
2023-01-02T22:45:03.221Z,1006.57
2023-01-02T22:50:06.259Z,1006.61
2023-01-02T22:55:03.107Z,1006.71
2023-01-02T23:00:03.222Z,1006.73
2023-01-02T23:05:03.229Z,1006.79
2023-01-02T23:10:03.304Z,1006.86
2023-01-02T23:15:03.177Z,1006.89
2023-01-02T23:20:03.300Z,1006.89
2023-01-02T23:25:03.187Z,1006.88
2023-01-02T23:30:03.316Z,1006.83
2023-01-02T23:35:03.188Z,1006.79
2023-01-02T23:40:03.361Z,1006.82
2023-01-02T23:45:03.237Z,1006.82
2023-01-02T23:50:03.320Z,1006.78
2023-01-02T23:55:03.275Z,1006.78
